createdAt,value
2017-04-23T00:00:19.565Z,372
2017-04-23T00:01:22.528Z,332
2017-04-23T00:02:24.928Z,292
2017-04-23T00:03:27.327Z,256
2017-04-23T00:04:29.712Z,220
2017-04-23T00:05:32.107Z,176
2017-04-23T00:06:35.097Z,136
2017-04-23T00:07:37.498Z,108
2017-04-23T00:08:39.888Z,88
2017-04-23T00:09:42.286Z,68
2017-04-23T00:10:44.686Z,56
2017-04-23T00:11:47.673Z,40
2017-04-23T00:12:50.045Z,32
2017-04-23T00:13:52.444Z,24
2017-04-23T00:14:54.835Z,20
2017-04-23T00:15:57.222Z,12
2017-04-23T00:17:00.313Z,8
2017-04-23T00:18:02.706Z,8
2017-04-23T00:19:05.094Z,4
2017-04-23T00:20:07.485Z,4
2017-04-23T00:21:09.872Z,0
2017-04-23T00:22:12.863Z,4
2017-04-23T00:23:15.259Z,4
2017-04-23T00:24:17.669Z,0
2017-04-23T00:25:20.044Z,0
2017-04-23T00:26:22.432Z,0
2017-04-23T00:27:25.427Z,0
2017-04-23T00:28:27.811Z,0
2017-04-23T00:29:30.220Z,0
2017-04-23T00:30:32.600Z,0
2017-04-23T00:31:34.972Z,0
2017-04-23T00:32:37.971Z,0
2017-04-23T00:33:40.364Z,0
2017-04-23T00:34:42.757Z,0
2017-04-23T00:35:45.172Z,0
2017-04-23T00:36:47.540Z,0
2017-04-23T00:37:50.530Z,0
2017-04-23T00:38:52.923Z,0
2017-04-23T00:39:55.307Z,0
2017-04-23T00:40:57.708Z,0
2017-04-23T00:42:00.105Z,0
2017-04-23T00:43:03.102Z,0
2017-04-23T00:44:05.490Z,0
2017-04-23T00:45:07.894Z,0
2017-04-23T00:46:10.274Z,0
2017-04-23T00:47:12.668Z,0
2017-04-23T00:48:15.666Z,0
2017-04-23T00:49:18.057Z,0
2017-04-23T00:50:20.449Z,0
2017-04-23T00:51:22.852Z,0
2017-04-23T00:52:25.241Z,0
2017-04-23T00:53:28.231Z,0
2017-04-23T00:54:30.626Z,0
2017-04-23T00:55:33.012Z,0
2017-04-23T00:56:35.385Z,0
2017-04-23T00:57:37.781Z,0
2017-04-23T00:58:40.780Z,0
2017-04-23T00:59:43.168Z,0
2017-04-23T01:00:45.552Z,0
2017-04-23T01:01:47.936Z,0
2017-04-23T01:02:50.326Z,0
2017-04-23T01:03:53.315Z,0
2017-04-23T01:04:55.717Z,0
2017-04-23T01:05:58.106Z,0
2017-04-23T01:07:00.497Z,0
2017-04-23T01:08:02.885Z,0
2017-04-23T01:09:05.875Z,0
2017-04-23T01:10:08.236Z,0
2017-04-23T01:11:10.619Z,0
2017-04-23T01:12:13.023Z,0
2017-04-23T01:13:15.384Z,0
2017-04-23T01:14:18.374Z,0
2017-04-23T01:15:20.761Z,0
2017-04-23T01:16:23.140Z,0
2017-04-23T01:17:25.514Z,0
2017-04-23T01:18:27.902Z,0
2017-04-23T01:19:30.913Z,0
2017-04-23T01:20:33.299Z,0
2017-04-23T01:21:35.691Z,0
2017-04-23T01:22:38.074Z,0
2017-04-23T01:23:40.463Z,0
2017-04-23T01:24:43.451Z,0
2017-04-23T01:25:45.853Z,0
2017-04-23T01:26:48.237Z,0
2017-04-23T01:27:50.632Z,0
2017-04-23T01:28:53.019Z,0
2017-04-23T01:29:56.019Z,0
2017-04-23T01:30:58.411Z,0
2017-04-23T01:32:00.794Z,0
2017-04-23T01:33:03.185Z,0
2017-04-23T01:34:05.559Z,0
2017-04-23T01:35:08.543Z,0
2017-04-23T01:36:10.901Z,0
2017-04-23T01:37:13.285Z,0
2017-04-23T01:38:15.680Z,0
2017-04-23T01:39:18.062Z,0
2017-04-23T01:40:21.061Z,0
2017-04-23T01:41:23.449Z,0
2017-04-23T01:42:25.831Z,0
2017-04-23T01:43:28.214Z,0
2017-04-23T01:44:30.601Z,0
2017-04-23T01:45:33.587Z,0
2017-04-23T01:46:35.972Z,0
2017-04-23T01:47:38.363Z,0
2017-04-23T01:48:40.740Z,0
2017-04-23T01:49:43.130Z,0
2017-04-23T01:50:46.102Z,0
2017-04-23T01:51:48.501Z,0
2017-04-23T01:52:51.094Z,0
2017-04-23T01:53:53.489Z,0
2017-04-23T01:54:55.882Z,0
2017-04-23T01:55:58.813Z,0
2017-04-23T01:57:01.198Z,0
2017-04-23T01:58:03.578Z,0
2017-04-23T01:59:05.953Z,0
2017-04-23T02:00:08.344Z,0
2017-04-23T02:01:11.325Z,0
2017-04-23T02:02:13.711Z,0
2017-04-23T02:03:16.086Z,0
2017-04-23T02:04:18.481Z,0
2017-04-23T02:05:20.882Z,0
2017-04-23T02:06:23.866Z,0
2017-04-23T02:07:26.244Z,0
2017-04-23T02:08:28.650Z,0
2017-04-23T02:09:31.036Z,0
2017-04-23T02:10:33.437Z,0
2017-04-23T02:11:36.409Z,0
2017-04-23T02:12:38.804Z,0
2017-04-23T02:13:41.210Z,0
2017-04-23T02:14:43.579Z,0
2017-04-23T02:15:45.972Z,0
2017-04-23T02:16:48.943Z,0
2017-04-23T02:17:51.331Z,0
2017-04-23T02:18:53.704Z,0
2017-04-23T02:19:56.073Z,0
2017-04-23T02:20:58.473Z,0
2017-04-23T02:22:01.462Z,0
2017-04-23T02:23:03.851Z,0
2017-04-23T02:24:06.241Z,0
2017-04-23T02:25:08.630Z,0
2017-04-23T02:26:11.020Z,0
2017-04-23T02:27:14.011Z,0
2017-04-23T02:28:16.367Z,0
2017-04-23T02:29:18.759Z,0
2017-04-23T02:30:21.160Z,0
2017-04-23T02:31:23.549Z,0
2017-04-23T02:32:26.533Z,0
2017-04-23T02:33:28.923Z,0
2017-04-23T02:34:31.320Z,0
2017-04-23T02:35:33.711Z,0
2017-04-23T02:36:36.099Z,0
2017-04-23T02:37:39.090Z,0
2017-04-23T02:38:41.473Z,0
2017-04-23T02:39:43.868Z,0
2017-04-23T02:40:46.260Z,0
2017-04-23T02:41:48.656Z,0
2017-04-23T02:42:51.641Z,0
2017-04-23T02:43:54.050Z,0
2017-04-23T02:44:56.422Z,0
2017-04-23T02:45:58.827Z,0
2017-04-23T02:47:01.217Z,0
2017-04-23T02:48:04.211Z,0
2017-04-23T02:49:06.604Z,0
2017-04-23T02:50:08.994Z,0
2017-04-23T02:51:11.394Z,0
2017-04-23T02:52:13.788Z,0
2017-04-23T02:53:16.791Z,0
2017-04-23T02:54:19.180Z,0
2017-04-23T02:55:21.565Z,0
2017-04-23T02:56:23.968Z,0
2017-04-23T02:57:26.356Z,0
2017-04-23T02:58:29.337Z,0
2017-04-23T02:59:31.727Z,0
2017-04-23T03:00:34.127Z,0
2017-04-23T03:01:36.510Z,0
2017-04-23T03:02:38.898Z,0
2017-04-23T03:03:41.887Z,0
2017-04-23T03:04:44.277Z,0
2017-04-23T03:05:46.673Z,0
2017-04-23T03:06:49.037Z,0
2017-04-23T03:07:51.430Z,0
2017-04-23T03:08:54.424Z,0
2017-04-23T03:09:56.812Z,0
2017-04-23T03:10:59.201Z,0
2017-04-23T03:12:01.603Z,0
2017-04-23T03:13:03.985Z,0
2017-04-23T03:14:06.986Z,0
2017-04-23T03:15:09.375Z,0
2017-04-23T03:16:11.774Z,0
2017-04-23T03:17:14.152Z,0
2017-04-23T03:18:16.553Z,0
2017-04-23T03:19:19.526Z,0
2017-04-23T03:20:21.897Z,0
2017-04-23T03:21:24.284Z,0
2017-04-23T03:22:26.677Z,0
2017-04-23T03:23:29.078Z,0
2017-04-23T03:24:32.073Z,0
2017-04-23T03:25:34.465Z,0
2017-04-23T03:26:36.838Z,0
2017-04-23T03:27:39.231Z,0
2017-04-23T03:28:41.608Z,0
2017-04-23T03:29:44.549Z,0
2017-04-23T03:30:46.941Z,0
2017-04-23T03:31:49.311Z,0
2017-04-23T03:32:51.701Z,0
2017-04-23T03:33:54.058Z,0
2017-04-23T03:34:57.040Z,0
2017-04-23T03:35:59.423Z,0
2017-04-23T03:37:01.812Z,0
2017-04-23T03:38:04.185Z,0
2017-04-23T03:39:06.565Z,0
2017-04-23T03:40:09.556Z,0
2017-04-23T03:41:11.928Z,0
2017-04-23T03:42:14.322Z,0
2017-04-23T03:43:16.695Z,0
2017-04-23T03:44:19.084Z,0
2017-04-23T03:45:22.053Z,0
2017-04-23T03:46:24.428Z,0
2017-04-23T03:47:26.819Z,0
2017-04-23T03:48:29.225Z,0
2017-04-23T03:49:31.597Z,0
2017-04-23T03:50:34.594Z,0
2017-04-23T03:51:36.955Z,0
2017-04-23T03:52:39.346Z,0
2017-04-23T03:53:41.718Z,0
2017-04-23T03:54:44.088Z,0
2017-04-23T03:55:47.083Z,0
2017-04-23T03:56:49.471Z,0
2017-04-23T03:57:51.850Z,0
2017-04-23T03:58:54.245Z,0
2017-04-23T03:59:56.623Z,0
2017-04-23T04:00:59.667Z,0
2017-04-23T04:02:02.021Z,0
2017-04-23T04:03:04.382Z,0
2017-04-23T04:04:06.751Z,0
2017-04-23T04:05:09.148Z,0
2017-04-23T04:06:12.110Z,0
2017-04-23T04:07:14.504Z,0
2017-04-23T04:08:16.863Z,0
2017-04-23T04:09:19.238Z,0
2017-04-23T04:10:21.591Z,0
2017-04-23T04:11:24.570Z,0
2017-04-23T04:12:26.928Z,0
2017-04-23T04:13:29.325Z,0
2017-04-23T04:14:31.891Z,0
2017-04-23T04:15:34.265Z,0
2017-04-23T04:16:37.212Z,0
2017-04-23T04:17:39.594Z,0
2017-04-23T04:18:41.964Z,0
2017-04-23T04:19:44.343Z,0
2017-04-23T04:20:46.698Z,0
2017-04-23T04:21:49.697Z,0
2017-04-23T04:22:52.090Z,0
2017-04-23T04:23:54.478Z,0
2017-04-23T04:24:56.863Z,0
2017-04-23T04:25:59.220Z,0
2017-04-23T04:27:02.143Z,0
2017-04-23T04:28:04.516Z,0
2017-04-23T04:29:06.908Z,0
2017-04-23T04:30:09.264Z,0
2017-04-23T04:31:11.664Z,0
2017-04-23T04:32:14.639Z,0
2017-04-23T04:33:17.012Z,0
2017-04-23T04:34:19.400Z,0
2017-04-23T04:35:21.787Z,0
2017-04-23T04:36:24.161Z,0
2017-04-23T04:37:27.150Z,0
2017-04-23T04:38:29.524Z,0
2017-04-23T04:39:31.921Z,0
2017-04-23T04:40:34.299Z,0
2017-04-23T04:41:36.686Z,0
2017-04-23T04:42:39.612Z,0
2017-04-23T04:43:41.999Z,0
2017-04-23T04:44:44.399Z,0
2017-04-23T04:45:46.783Z,0
2017-04-23T04:46:49.175Z,0
2017-04-23T04:47:52.159Z,0
2017-04-23T04:48:54.551Z,0
2017-04-23T04:49:56.923Z,0
2017-04-23T04:50:59.294Z,0
2017-04-23T04:52:01.662Z,0
2017-04-23T04:53:04.572Z,0
2017-04-23T04:54:06.963Z,0
2017-04-23T04:55:09.324Z,0
2017-04-23T04:56:11.706Z,0
2017-04-23T04:57:14.085Z,0
2017-04-23T04:58:17.053Z,0
2017-04-23T04:59:19.447Z,0
2017-04-23T05:00:21.805Z,0
2017-04-23T05:01:24.199Z,0
2017-04-23T05:02:26.559Z,0
2017-04-23T05:03:29.541Z,0
2017-04-23T05:04:31.917Z,0
2017-04-23T05:05:34.302Z,0
2017-04-23T05:06:36.681Z,0
2017-04-23T05:07:39.056Z,0
2017-04-23T05:08:42.023Z,0
2017-04-23T05:09:44.402Z,0
2017-04-23T05:10:46.765Z,0
2017-04-23T05:11:49.132Z,0
2017-04-23T05:12:51.499Z,0
2017-04-23T05:13:54.453Z,0
2017-04-23T05:14:56.841Z,0
2017-04-23T05:15:59.221Z,0
2017-04-23T05:17:01.607Z,0
2017-04-23T05:18:03.970Z,0
2017-04-23T05:19:06.945Z,0
2017-04-23T05:20:09.317Z,0
2017-04-23T05:21:11.705Z,0
2017-04-23T05:22:14.073Z,0
2017-04-23T05:23:16.462Z,0
2017-04-23T05:24:19.451Z,0
2017-04-23T05:25:21.809Z,0
2017-04-23T05:26:24.197Z,0
2017-04-23T05:27:26.601Z,0
2017-04-23T05:28:28.976Z,0
2017-04-23T05:29:31.970Z,0
2017-04-23T05:30:34.338Z,0
2017-04-23T05:31:36.743Z,0
2017-04-23T05:32:39.110Z,0
2017-04-23T05:33:41.503Z,0
2017-04-23T05:34:44.409Z,0
2017-04-23T05:35:46.774Z,0
2017-04-23T05:36:49.140Z,0
2017-04-23T05:37:51.500Z,0
2017-04-23T05:38:53.874Z,0
2017-04-23T05:39:56.858Z,0
2017-04-23T05:40:59.217Z,0
2017-04-23T05:42:01.589Z,0
2017-04-23T05:43:03.970Z,0
2017-04-23T05:44:06.325Z,0
2017-04-23T05:45:09.288Z,0
2017-04-23T05:46:11.676Z,0
2017-04-23T05:47:14.056Z,0
2017-04-23T05:48:16.444Z,0
2017-04-23T05:49:18.823Z,0
2017-04-23T05:50:21.791Z,0
2017-04-23T05:51:24.155Z,0
2017-04-23T05:52:26.515Z,0
2017-04-23T05:53:28.882Z,0
2017-04-23T05:54:31.279Z,0
2017-04-23T05:55:34.239Z,0
2017-04-23T05:56:36.604Z,0
2017-04-23T05:57:38.964Z,0
2017-04-23T05:58:41.337Z,0
2017-04-23T05:59:43.693Z,0
2017-04-23T06:00:46.598Z,0
2017-04-23T06:01:48.955Z,0
2017-04-23T06:02:51.313Z,0
2017-04-23T06:03:53.672Z,0
2017-04-23T06:04:56.032Z,0
2017-04-23T06:05:58.943Z,0
2017-04-23T06:07:01.322Z,0
2017-04-23T06:08:03.690Z,0
2017-04-23T06:09:06.053Z,0
2017-04-23T06:10:08.403Z,0
2017-04-23T06:11:11.384Z,0
2017-04-23T06:12:13.743Z,0
2017-04-23T06:13:16.098Z,0
2017-04-23T06:14:18.455Z,0
2017-04-23T06:15:20.815Z,0
2017-04-23T06:16:23.720Z,0
2017-04-23T06:17:26.085Z,0
2017-04-23T06:18:28.444Z,0
2017-04-23T06:19:30.806Z,0
2017-04-23T06:20:33.166Z,0
2017-04-23T06:21:36.083Z,0
2017-04-23T06:22:38.442Z,0
2017-04-23T06:23:40.811Z,0
2017-04-23T06:24:43.171Z,0
2017-04-23T06:25:45.546Z,0
2017-04-23T06:26:48.500Z,0
2017-04-23T06:27:50.872Z,0
2017-04-23T06:28:53.223Z,0
2017-04-23T06:29:55.580Z,0
2017-04-23T06:30:57.942Z,0
2017-04-23T06:32:00.847Z,0
2017-04-23T06:33:03.215Z,0
2017-04-23T06:34:05.580Z,0
2017-04-23T06:35:07.938Z,0
2017-04-23T06:36:10.299Z,0
2017-04-23T06:37:13.209Z,0
2017-04-23T06:38:15.568Z,0
2017-04-23T06:39:17.922Z,0
2017-04-23T06:40:20.278Z,0
2017-04-23T06:41:22.638Z,0
2017-04-23T06:42:25.544Z,0
2017-04-23T06:43:27.910Z,0
2017-04-23T06:44:30.271Z,0
2017-04-23T06:45:32.625Z,0
2017-04-23T06:46:34.987Z,0
2017-04-23T06:47:37.956Z,0
2017-04-23T06:48:40.309Z,0
2017-04-23T06:49:42.669Z,0
2017-04-23T06:50:45.036Z,0
2017-04-23T06:51:47.396Z,0
2017-04-23T06:52:50.299Z,0
2017-04-23T06:53:52.667Z,0
2017-04-23T06:54:55.015Z,0
2017-04-23T06:55:57.385Z,0
2017-04-23T06:56:59.738Z,0
2017-04-23T06:58:02.657Z,0
2017-04-23T06:59:05.021Z,0
2017-04-23T07:00:07.398Z,0
2017-04-23T07:01:09.755Z,0
2017-04-23T07:02:12.116Z,0
2017-04-23T07:03:15.030Z,0
2017-04-23T07:04:17.391Z,0
2017-04-23T07:05:19.756Z,0
2017-04-23T07:06:22.107Z,0
2017-04-23T07:07:24.465Z,0
2017-04-23T07:08:27.431Z,0
2017-04-23T07:09:29.794Z,0
2017-04-23T07:10:32.150Z,0
2017-04-23T07:11:34.514Z,0
2017-04-23T07:12:36.878Z,0
2017-04-23T07:13:39.785Z,0
2017-04-23T07:14:42.144Z,0
2017-04-23T07:15:44.501Z,0
2017-04-23T07:16:46.860Z,0
2017-04-23T07:17:49.226Z,0
2017-04-23T07:18:52.182Z,0
2017-04-23T07:19:54.547Z,0
2017-04-23T07:20:56.915Z,0
2017-04-23T07:21:59.273Z,0
2017-04-23T07:23:01.638Z,0
2017-04-23T07:24:04.545Z,0
2017-04-23T07:25:06.920Z,0
2017-04-23T07:26:09.277Z,0
2017-04-23T07:27:11.635Z,0
2017-04-23T07:28:13.998Z,0
2017-04-23T07:29:16.960Z,0
2017-04-23T07:30:19.320Z,0
2017-04-23T07:31:21.685Z,0
2017-04-23T07:32:24.044Z,0
2017-04-23T07:33:26.411Z,0
2017-04-23T07:34:29.329Z,0
2017-04-23T07:35:31.689Z,0
2017-04-23T07:36:34.050Z,0
2017-04-23T07:37:36.409Z,0
2017-04-23T07:38:38.782Z,0
2017-04-23T07:39:41.690Z,0
2017-04-23T07:40:44.048Z,0
2017-04-23T07:41:46.409Z,0
2017-04-23T07:42:48.766Z,0
2017-04-23T07:43:51.136Z,0
2017-04-23T07:44:54.053Z,0
2017-04-23T07:45:56.409Z,0
2017-04-23T07:46:58.773Z,0
2017-04-23T07:48:01.128Z,0
2017-04-23T07:49:03.487Z,0
2017-04-23T07:50:06.460Z,0
2017-04-23T07:51:08.825Z,0
2017-04-23T07:52:11.189Z,0
2017-04-23T07:53:13.544Z,0
2017-04-23T07:54:15.909Z,0
2017-04-23T07:55:18.868Z,0
2017-04-23T07:56:21.232Z,0
2017-04-23T07:57:23.604Z,0
2017-04-23T07:58:25.957Z,0
2017-04-23T07:59:28.332Z,0
2017-04-23T08:00:31.297Z,0
2017-04-23T08:01:33.666Z,0
2017-04-23T08:02:36.016Z,0
2017-04-23T08:03:38.382Z,0
2017-04-23T08:04:40.737Z,0
2017-04-23T08:05:43.706Z,0
2017-04-23T08:06:46.063Z,0
2017-04-23T08:07:48.448Z,0
2017-04-23T08:08:50.793Z,0
2017-04-23T08:09:53.156Z,0
2017-04-23T08:10:56.109Z,0
2017-04-23T08:11:58.465Z,0
2017-04-23T08:13:00.818Z,0
2017-04-23T08:14:03.180Z,0
2017-04-23T08:15:05.557Z,0
2017-04-23T08:16:08.462Z,0
2017-04-23T08:17:10.820Z,0
2017-04-23T08:18:13.171Z,0
2017-04-23T08:19:15.532Z,0
2017-04-23T08:20:17.894Z,0
2017-04-23T08:21:20.807Z,0
2017-04-23T08:22:23.167Z,0
2017-04-23T08:23:25.519Z,0
2017-04-23T08:24:27.880Z,0
2017-04-23T08:25:30.234Z,0
2017-04-23T08:26:33.190Z,0
2017-04-23T08:27:35.553Z,0
2017-04-23T08:28:37.910Z,0
2017-04-23T08:29:40.271Z,0
2017-04-23T08:30:42.631Z,0
2017-04-23T08:31:45.543Z,0
2017-04-23T08:32:47.911Z,0
2017-04-23T08:33:50.275Z,0
2017-04-23T08:34:52.627Z,0
2017-04-23T08:35:55.011Z,0
2017-04-23T08:36:57.950Z,0
2017-04-23T08:38:00.309Z,0
2017-04-23T08:39:02.668Z,0
2017-04-23T08:40:05.022Z,0
2017-04-23T08:41:07.384Z,0
2017-04-23T08:42:10.295Z,0
2017-04-23T08:43:12.664Z,0
2017-04-23T08:44:15.022Z,0
2017-04-23T08:45:17.376Z,0
2017-04-23T08:46:19.737Z,0
2017-04-23T08:47:22.696Z,0
2017-04-23T08:48:25.059Z,0
2017-04-23T08:49:27.415Z,0
2017-04-23T08:50:29.774Z,0
2017-04-23T08:51:32.136Z,0
2017-04-23T08:52:35.151Z,0
2017-04-23T08:53:37.513Z,0
2017-04-23T08:54:39.872Z,0
2017-04-23T08:55:42.226Z,0
2017-04-23T08:56:44.580Z,0
2017-04-23T08:57:47.498Z,0
2017-04-23T08:58:49.865Z,0
2017-04-23T09:02:22.085Z,0
2017-04-23T09:03:25.048Z,0
2017-04-23T09:04:27.406Z,0
2017-04-23T09:05:29.772Z,0
2017-04-23T09:06:32.131Z,0
2017-04-23T09:07:34.494Z,0
2017-04-23T09:08:37.450Z,0
2017-04-23T09:09:39.805Z,0
2017-04-23T09:10:42.169Z,0
2017-04-23T09:11:44.524Z,0
2017-04-23T09:12:46.890Z,0
2017-04-23T09:13:49.795Z,0
2017-04-23T09:14:52.166Z,0
2017-04-23T09:15:54.526Z,0
2017-04-23T09:16:56.899Z,0
2017-04-23T09:17:59.254Z,0
2017-04-23T09:19:02.226Z,0
2017-04-23T09:20:04.590Z,0
2017-04-23T09:21:06.955Z,0
2017-04-23T09:22:09.311Z,0
2017-04-23T09:23:11.672Z,0
2017-04-23T09:24:14.635Z,0
2017-04-23T09:25:17.204Z,0
2017-04-23T09:26:19.561Z,0
2017-04-23T09:27:22.128Z,0
2017-04-23T09:28:24.486Z,0
2017-04-23T09:29:27.446Z,0
2017-04-23T09:30:29.805Z,0
2017-04-23T09:31:32.163Z,0
2017-04-23T09:32:34.522Z,0
2017-04-23T09:33:36.882Z,0
2017-04-23T09:34:39.789Z,0
2017-04-23T09:35:42.150Z,0
2017-04-23T09:36:44.508Z,0
2017-04-23T09:37:46.869Z,0
2017-04-23T09:38:49.228Z,0
2017-04-23T09:39:52.185Z,0
2017-04-23T09:40:54.553Z,0
2017-04-23T09:41:56.905Z,0
2017-04-23T09:42:59.269Z,0
2017-04-23T09:44:01.632Z,0
2017-04-23T09:45:04.537Z,0
2017-04-23T09:46:06.907Z,0
2017-04-23T09:47:09.266Z,0
2017-04-23T09:48:11.631Z,0
2017-04-23T09:49:13.985Z,0
2017-04-23T09:50:16.949Z,0
2017-04-23T09:51:19.317Z,0
2017-04-23T09:52:21.674Z,0
2017-04-23T09:53:24.047Z,0
2017-04-23T09:54:26.396Z,0
2017-04-23T09:55:29.305Z,0
2017-04-23T09:56:31.665Z,0
2017-04-23T09:57:34.016Z,0
2017-04-23T09:58:36.392Z,0
2017-04-23T09:59:38.745Z,0
2017-04-23T10:00:41.659Z,0
2017-04-23T10:01:44.014Z,0
2017-04-23T10:02:46.376Z,0
2017-04-23T10:03:48.738Z,0
2017-04-23T10:04:51.099Z,0
2017-04-23T10:05:54.251Z,0
2017-04-23T10:06:56.631Z,0
2017-04-23T10:07:58.985Z,0
2017-04-23T10:09:01.354Z,0
2017-04-23T10:10:03.714Z,0
2017-04-23T10:11:06.634Z,0
2017-04-23T10:12:08.993Z,0
2017-04-23T10:13:11.356Z,0
2017-04-23T10:14:13.716Z,0
2017-04-23T10:15:16.075Z,0
2017-04-23T10:16:18.995Z,0
2017-04-23T10:17:21.346Z,0
2017-04-23T10:18:23.703Z,0
2017-04-23T10:19:26.061Z,0
2017-04-23T10:20:28.623Z,0
2017-04-23T10:21:31.777Z,0
2017-04-23T10:22:34.137Z,0
2017-04-23T10:23:36.510Z,0
2017-04-23T10:24:38.872Z,0
2017-04-23T10:25:41.244Z,0
2017-04-23T10:26:44.185Z,0
2017-04-23T10:27:46.543Z,0
2017-04-23T10:28:48.903Z,0
2017-04-23T10:29:51.258Z,0
2017-04-23T10:30:53.621Z,0
2017-04-23T10:31:56.532Z,0
2017-04-23T10:32:58.887Z,0
2017-04-23T10:34:01.248Z,0
2017-04-23T10:35:03.612Z,0
2017-04-23T10:36:05.998Z,0
2017-04-23T10:37:08.902Z,0
2017-04-23T10:38:11.253Z,0
2017-04-23T10:39:13.617Z,0
2017-04-23T10:40:15.980Z,0
2017-04-23T10:41:18.332Z,0
2017-04-23T10:42:21.292Z,0
2017-04-23T10:43:23.662Z,0
2017-04-23T10:44:26.019Z,0
2017-04-23T10:45:28.387Z,0
2017-04-23T10:46:30.747Z,0
2017-04-23T10:47:33.707Z,0
2017-04-23T10:48:36.066Z,0
2017-04-23T10:49:38.428Z,0
2017-04-23T10:50:40.791Z,0
2017-04-23T10:51:43.145Z,0
2017-04-23T10:52:46.106Z,0
2017-04-23T10:53:48.468Z,0
2017-04-23T10:54:50.842Z,0
2017-04-23T10:55:53.199Z,0
2017-04-23T10:56:55.548Z,0
2017-04-23T10:57:58.508Z,0
2017-04-23T10:59:00.874Z,0
2017-04-23T11:00:03.235Z,0
2017-04-23T11:01:05.588Z,0
2017-04-23T11:02:07.946Z,0
2017-04-23T11:03:10.858Z,0
2017-04-23T11:04:13.220Z,0
2017-04-23T11:05:15.587Z,0
2017-04-23T11:06:17.949Z,0
2017-04-23T11:07:20.307Z,0
2017-04-23T11:08:23.263Z,0
2017-04-23T11:09:25.622Z,0
2017-04-23T11:10:28.196Z,0
2017-04-23T11:11:30.555Z,0
2017-04-23T11:12:32.921Z,0
2017-04-23T11:13:35.882Z,0
2017-04-23T11:14:38.241Z,0
2017-04-23T11:15:40.605Z,0
2017-04-23T11:16:42.958Z,0
2017-04-23T11:17:45.312Z,0
2017-04-23T11:18:48.276Z,0
2017-04-23T11:19:50.635Z,0
2017-04-23T11:20:52.997Z,0
2017-04-23T11:21:55.361Z,0
2017-04-23T11:22:57.726Z,0
2017-04-23T11:24:00.695Z,0
2017-04-23T11:25:03.050Z,0
2017-04-23T11:26:05.408Z,0
2017-04-23T11:27:07.776Z,0
2017-04-23T11:28:10.129Z,0
2017-04-23T11:29:13.040Z,0
2017-04-23T11:30:15.401Z,0
2017-04-23T11:31:17.764Z,0
2017-04-23T11:32:20.122Z,4
2017-04-23T11:33:22.478Z,4
2017-04-23T11:34:25.444Z,4
2017-04-23T11:35:27.809Z,8
2017-04-23T11:36:30.164Z,8
2017-04-23T11:37:32.523Z,12
2017-04-23T11:38:34.888Z,12
2017-04-23T11:39:37.812Z,20
2017-04-23T11:40:40.161Z,24
2017-04-23T11:41:42.520Z,36
2017-04-23T11:42:44.890Z,48
2017-04-23T11:43:47.259Z,60
2017-04-23T11:44:50.169Z,80
2017-04-23T11:45:52.532Z,100
2017-04-23T11:46:54.890Z,128
2017-04-23T11:47:57.261Z,156
2017-04-23T11:48:59.625Z,188
2017-04-23T11:50:02.580Z,224
2017-04-23T11:51:04.943Z,260
2017-04-23T11:52:07.311Z,304
2017-04-23T11:53:09.677Z,348
2017-04-23T11:54:12.043Z,400
2017-04-23T11:55:14.960Z,456
2017-04-23T11:56:17.324Z,524
2017-04-23T11:57:19.690Z,596
2017-04-23T11:58:22.056Z,672
2017-04-23T11:59:24.415Z,752
2017-04-23T12:00:27.329Z,836
2017-04-23T12:01:29.693Z,936
2017-04-23T12:02:32.054Z,1040
2017-04-23T12:03:34.423Z,1140
2017-04-23T12:04:36.786Z,1256
2017-04-23T12:05:39.746Z,1376
2017-04-23T12:06:42.108Z,1500
2017-04-23T12:07:44.474Z,1612
2017-04-23T12:08:46.833Z,1708
2017-04-23T12:09:49.193Z,1792
2017-04-23T12:10:52.155Z,1872
2017-04-23T12:11:54.515Z,1968
2017-04-23T12:12:56.889Z,2072
2017-04-23T12:13:59.263Z,2160
2017-04-23T12:15:01.619Z,2240
2017-04-23T12:16:04.598Z,2316
2017-04-23T12:17:07.161Z,2404
2017-04-23T12:18:09.537Z,2492
2017-04-23T12:19:11.905Z,2572
2017-04-23T12:20:14.265Z,2656
2017-04-23T12:21:17.179Z,2740
2017-04-23T12:22:19.543Z,2844
2017-04-23T12:23:21.911Z,2876
2017-04-23T12:24:24.275Z,2928
2017-04-23T12:25:26.644Z,3016
2017-04-23T12:26:29.603Z,3380
2017-04-23T12:27:31.974Z,3480
2017-04-23T12:28:34.339Z,3784
2017-04-23T12:29:36.714Z,3920
2017-04-23T12:30:39.071Z,4020
2017-04-23T12:31:42.032Z,4128
2017-04-23T12:32:44.396Z,4248
2017-04-23T12:33:46.768Z,4336
2017-04-23T12:34:49.139Z,4404
2017-04-23T12:35:51.501Z,4460
2017-04-23T12:36:54.491Z,4540
2017-04-23T12:37:56.855Z,4604
2017-04-23T12:38:59.209Z,4652
2017-04-23T12:40:01.578Z,4724
2017-04-23T12:41:03.959Z,4784
2017-04-23T12:42:06.923Z,4820
2017-04-23T12:43:09.296Z,4860
2017-04-23T12:44:11.663Z,5084
2017-04-23T12:45:14.021Z,5332
2017-04-23T12:46:16.437Z,5540
2017-04-23T12:47:19.365Z,5680
2017-04-23T12:48:21.758Z,5796
2017-04-23T12:49:24.141Z,5900
2017-04-23T12:50:26.454Z,6000
2017-04-23T12:51:28.821Z,5992
2017-04-23T12:52:31.824Z,6032
2017-04-23T12:53:34.148Z,6084
2017-04-23T12:54:36.535Z,6152
2017-04-23T12:55:38.890Z,6220
2017-04-23T12:56:41.252Z,6276
2017-04-23T12:57:44.249Z,6316
2017-04-23T12:58:46.648Z,6440
2017-04-23T12:59:48.967Z,6744
2017-04-23T13:00:51.354Z,4588
2017-04-23T13:01:53.690Z,7464
2017-04-23T13:02:56.649Z,7852
2017-04-23T13:03:59.044Z,8060
2017-04-23T13:05:01.415Z,8172
2017-04-23T13:06:03.772Z,8316
2017-04-23T13:07:06.144Z,8448
2017-04-23T13:08:09.115Z,8812
2017-04-23T13:09:11.476Z,9084
2017-04-23T13:10:13.845Z,9276
2017-04-23T13:11:16.216Z,6840
2017-04-23T13:12:18.580Z,9876
2017-04-23T13:13:21.548Z,10104
2017-04-23T13:14:23.939Z,10340
2017-04-23T13:15:26.292Z,8708
2017-04-23T13:16:28.671Z,10872
2017-04-23T13:17:31.109Z,11232
2017-04-23T13:18:34.021Z,11524
2017-04-23T13:19:36.395Z,11896
2017-04-23T13:20:38.738Z,12052
2017-04-23T13:21:41.097Z,12468
2017-04-23T13:22:43.493Z,12844
2017-04-23T13:23:46.396Z,13212
2017-04-23T13:24:48.755Z,13732
2017-04-23T13:25:51.128Z,14260
2017-04-23T13:26:53.526Z,14464
2017-04-23T13:27:55.966Z,14748
2017-04-23T13:28:58.806Z,15148
2017-04-23T13:30:01.184Z,15840
2017-04-23T13:31:03.586Z,16544
2017-04-23T13:32:05.912Z,16736
2017-04-23T13:33:08.348Z,16960
2017-04-23T13:34:11.259Z,17728
2017-04-23T13:35:13.655Z,18080
2017-04-23T13:36:16.009Z,18624
2017-04-23T13:37:18.383Z,19264
2017-04-23T13:38:20.736Z,19776
2017-04-23T13:39:23.683Z,7684
2017-04-23T13:40:26.064Z,20576
2017-04-23T13:41:28.405Z,21056
2017-04-23T13:42:30.773Z,21824
2017-04-23T13:43:33.143Z,25216
2017-04-23T13:44:36.105Z,26976
2017-04-23T13:45:38.444Z,24288
2017-04-23T13:46:40.811Z,24512
2017-04-23T13:47:43.184Z,25088
2017-04-23T13:48:45.554Z,25376
2017-04-23T13:49:48.492Z,25920
2017-04-23T13:50:50.895Z,26240
2017-04-23T13:51:53.270Z,27552
2017-04-23T13:52:55.624Z,27680
2017-04-23T13:53:57.999Z,28000
2017-04-23T13:55:00.945Z,28448
2017-04-23T13:56:03.353Z,28768
2017-04-23T13:57:05.703Z,29888
2017-04-23T13:58:08.115Z,30752
2017-04-23T13:59:10.442Z,31424
2017-04-23T14:00:13.418Z,31968
2017-04-23T14:01:15.727Z,33536
2017-04-23T14:02:18.113Z,34368
2017-04-23T14:03:20.503Z,35040
2017-04-23T14:04:22.923Z,35904
2017-04-23T14:05:25.781Z,36288
2017-04-23T14:06:28.163Z,36832
2017-04-23T14:07:30.589Z,39872
2017-04-23T14:08:33.009Z,41216
2017-04-23T14:09:35.668Z,39968
2017-04-23T14:10:38.260Z,40768
2017-04-23T14:11:40.836Z,42240
2017-04-23T14:12:43.213Z,42816
2017-04-23T14:13:45.526Z,43456
2017-04-23T14:14:48.062Z,43328
2017-04-23T14:15:50.741Z,41600
2017-04-23T14:16:53.149Z,44416
2017-04-23T14:17:55.687Z,44544
2017-04-23T14:18:57.878Z,43200
2017-04-23T14:20:00.206Z,44960
2017-04-23T14:21:03.371Z,45760
2017-04-23T14:22:05.552Z,46752
2017-04-23T14:23:07.924Z,47264
2017-04-23T14:24:10.309Z,49568
2017-04-23T14:25:12.728Z,53312
2017-04-23T14:26:15.698Z,53440
2017-04-23T14:27:18.037Z,53152
2017-04-23T14:28:20.425Z,49696
2017-04-23T14:29:22.799Z,50304
2017-04-23T14:30:25.156Z,53280
2017-04-23T14:31:28.095Z,52896
2017-04-23T14:32:30.478Z,48544
2017-04-23T14:33:32.838Z,55936
2017-04-23T14:34:35.228Z,54432
2017-04-23T14:35:37.606Z,52992
2017-04-23T14:36:40.571Z,53792
2017-04-23T14:37:42.961Z,56704
2017-04-23T14:38:45.318Z,56608
2017-04-23T14:39:47.692Z,45792
2017-04-23T14:40:50.113Z,62400
2017-04-23T14:41:53.046Z,61440
2017-04-23T14:42:55.428Z,61664
2017-04-23T14:43:57.806Z,61344
2017-04-23T14:45:00.173Z,61088
2017-04-23T14:46:02.565Z,60832
2017-04-23T14:47:05.528Z,62496
2017-04-23T14:48:07.896Z,64288
2017-04-23T14:49:10.289Z,62720
2017-04-23T14:50:12.652Z,60800
2017-04-23T14:51:15.029Z,63680
2017-04-23T14:52:17.952Z,65024
2017-04-23T14:53:20.330Z,65920
2017-04-23T14:54:22.715Z,65696
2017-04-23T14:55:25.089Z,65792
2017-04-23T14:56:27.471Z,61088
2017-04-23T14:57:30.447Z,64096
2017-04-23T14:58:32.818Z,66208
2017-04-23T14:59:35.222Z,59392
2017-04-23T15:00:37.597Z,55936